createdAt,value
2023-01-17T00:02:05.743Z,100.00
2023-01-17T00:04:52.164Z,100.00
2023-01-17T00:07:39.456Z,100.00
2023-01-17T00:10:09.989Z,100.00
2023-01-17T00:12:38.217Z,100.00
2023-01-17T00:15:07.578Z,100.00
2023-01-17T00:17:35.257Z,100.00
2023-01-17T00:20:21.951Z,100.00
2023-01-17T00:23:07.166Z,100.00
2023-01-17T00:25:55.948Z,100.00
2023-01-17T00:28:22.949Z,100.00
2023-01-17T00:30:49.537Z,100.00
2023-01-17T00:33:16.453Z,100.00
2023-01-17T00:35:44.482Z,100.00
2023-01-17T00:38:13.282Z,100.00
2023-01-17T00:40:42.476Z,100.00
2023-01-17T00:43:29.105Z,100.00
2023-01-17T00:46:14.518Z,100.00
2023-01-17T00:49:00.410Z,100.00
2023-01-17T00:51:47.871Z,100.00
2023-01-17T00:54:33.908Z,100.00
2023-01-17T00:57:19.754Z,100.00
2023-01-17T01:00:05.262Z,100.00
2023-01-17T01:02:51.522Z,100.00
2023-01-17T01:05:36.889Z,100.00
2023-01-17T01:08:35.209Z,100.00
2023-01-17T01:11:23.541Z,100.00
2023-01-17T01:14:09.098Z,100.00
2023-01-17T01:16:54.301Z,100.00
2023-01-17T01:19:39.764Z,100.00
2023-01-17T01:22:25.085Z,100.00
2023-01-17T01:25:11.838Z,100.00
2023-01-17T01:27:57.274Z,100.00
2023-01-17T01:30:42.513Z,100.00
2023-01-17T01:33:18.684Z,100.00
2023-01-17T01:35:47.275Z,100.00
2023-01-17T01:38:14.960Z,100.00
2023-01-17T01:40:45.453Z,100.00
2023-01-17T01:43:15.684Z,100.00
2023-01-17T01:45:47.978Z,100.00
2023-01-17T01:48:33.645Z,100.00
2023-01-17T01:51:03.247Z,100.00
2023-01-17T01:53:33.655Z,100.00
2023-01-17T01:56:04.397Z,100.00
2023-01-17T01:58:36.914Z,100.00
2023-01-17T02:01:06.320Z,100.00
2023-01-17T02:03:35.223Z,100.00
2023-01-17T02:06:09.779Z,100.00
2023-01-17T02:08:37.651Z,100.00
2023-01-17T02:11:06.865Z,100.00
2023-01-17T02:13:34.747Z,100.00
2023-01-17T02:16:09.058Z,100.00
2023-01-17T02:18:47.311Z,100.00
2023-01-17T02:21:25.049Z,100.00
2023-01-17T02:24:44.718Z,100.00
2023-01-17T02:27:25.718Z,100.00
2023-01-17T02:30:16.865Z,100.00
2023-01-17T02:32:54.109Z,100.00
2023-01-17T02:35:30.801Z,100.00
2023-01-17T02:38:06.807Z,100.00
2023-01-17T02:40:39.965Z,100.00
2023-01-17T02:43:11.765Z,100.00
2023-01-17T02:45:41.242Z,100.00
2023-01-17T02:48:11.922Z,100.00
2023-01-17T02:51:24.787Z,100.00
2023-01-17T02:54:04.896Z,100.00
2023-01-17T02:56:44.842Z,100.00
2023-01-17T02:59:26.066Z,100.00
2023-01-17T03:02:10.333Z,100.00
2023-01-17T03:04:43.001Z,100.00
2023-01-17T03:07:16.412Z,100.00
2023-01-17T03:09:45.848Z,100.00
2023-01-17T03:12:14.249Z,100.00
2023-01-17T03:14:41.917Z,100.00
2023-01-17T03:17:10.973Z,100.00
2023-01-17T03:19:38.640Z,100.00
2023-01-17T03:22:06.330Z,100.00
2023-01-17T03:24:34.045Z,100.00
2023-01-17T03:27:04.243Z,100.00
2023-01-17T03:29:32.327Z,100.00
2023-01-17T03:32:00.164Z,99.09
2023-01-17T03:34:29.448Z,98.55
2023-01-17T03:36:57.173Z,98.93
2023-01-17T03:39:24.904Z,99.71
2023-01-17T03:41:52.703Z,99.52
2023-01-17T03:44:20.369Z,99.59
2023-01-17T03:46:48.176Z,98.43
2023-01-17T03:49:16.655Z,99.35
2023-01-17T03:51:45.749Z,98.86
2023-01-17T03:54:13.449Z,99.47
2023-01-17T03:56:41.209Z,100.00
2023-01-17T03:59:10.426Z,100.00
2023-01-17T04:01:42.374Z,99.80
2023-01-17T04:04:10.047Z,100.00
2023-01-17T04:06:37.813Z,100.00
2023-01-17T04:09:06.941Z,99.92
2023-01-17T04:11:35.024Z,100.00
2023-01-17T04:14:02.801Z,100.00
2023-01-17T04:16:31.979Z,100.00
2023-01-17T04:18:59.968Z,100.00
2023-01-17T04:21:27.703Z,100.00
2023-01-17T04:23:56.442Z,100.00
2023-01-17T04:26:25.468Z,100.00
2023-01-17T04:28:53.364Z,100.00
2023-01-17T04:31:21.086Z,100.00
2023-01-17T04:33:48.814Z,100.00
2023-01-17T04:36:16.496Z,100.00
2023-01-17T04:38:44.202Z,100.00
2023-01-17T04:41:11.929Z,100.00
2023-01-17T04:43:41.011Z,100.00
2023-01-17T04:46:10.115Z,100.00
2023-01-17T04:48:38.267Z,100.00
2023-01-17T04:51:06.873Z,100.00
2023-01-17T04:53:34.592Z,100.00
2023-01-17T04:56:02.285Z,100.00
2023-01-17T04:58:30.517Z,100.00
2023-01-17T05:01:04.145Z,100.00
2023-01-17T05:03:32.554Z,100.00
2023-01-17T05:06:00.321Z,100.00
2023-01-17T05:08:28.016Z,100.00
2023-01-17T05:10:55.684Z,100.00
2023-01-17T05:13:23.417Z,100.00
2023-01-17T05:15:51.437Z,100.00
2023-01-17T05:18:20.538Z,100.00
2023-01-17T05:20:48.269Z,100.00
2023-01-17T05:23:16.017Z,100.00
2023-01-17T05:25:46.333Z,100.00
2023-01-17T05:28:14.937Z,100.00
2023-01-17T05:30:42.728Z,100.00
2023-01-17T05:33:11.204Z,100.00
2023-01-17T05:35:40.254Z,100.00
2023-01-17T05:38:08.102Z,100.00
2023-01-17T05:40:36.218Z,100.00
2023-01-17T05:43:04.561Z,100.00
2023-01-17T05:45:33.487Z,100.00
2023-01-17T05:48:01.935Z,100.00
2023-01-17T05:50:32.259Z,100.00
2023-01-17T05:53:03.271Z,100.00
2023-01-17T05:55:32.490Z,100.00
2023-01-17T05:58:00.671Z,100.00
2023-01-17T06:00:28.956Z,100.00
2023-01-17T06:02:58.056Z,100.00
2023-01-17T06:05:27.219Z,100.00
2023-01-17T06:07:56.507Z,100.00
2023-01-17T06:10:26.391Z,100.00
2023-01-17T06:13:03.058Z,100.00
2023-01-17T06:15:30.762Z,100.00
2023-01-17T06:17:58.575Z,100.00
2023-01-17T06:20:27.301Z,100.00
2023-01-17T06:22:56.551Z,100.00
2023-01-17T06:25:28.099Z,100.00
2023-01-17T06:27:55.814Z,100.00
2023-01-17T06:30:23.646Z,100.00
2023-01-17T06:32:55.180Z,100.00
2023-01-17T06:35:23.144Z,100.00
2023-01-17T06:37:55.445Z,100.00
2023-01-17T06:40:25.318Z,100.00
2023-01-17T06:42:53.159Z,100.00
2023-01-17T06:45:21.393Z,100.00
2023-01-17T06:47:49.157Z,100.00
2023-01-17T06:50:17.457Z,100.00
2023-01-17T06:52:54.847Z,100.00
2023-01-17T06:55:22.788Z,100.00
2023-01-17T06:57:51.891Z,100.00
2023-01-17T07:00:20.365Z,100.00
2023-01-17T07:02:50.673Z,100.00
2023-01-17T07:05:18.794Z,100.00
2023-01-17T07:07:47.131Z,100.00
2023-01-17T07:10:16.626Z,100.00
2023-01-17T07:12:44.368Z,100.00
2023-01-17T07:15:13.962Z,100.00
2023-01-17T07:17:41.783Z,100.00
2023-01-17T07:20:10.796Z,100.00
2023-01-17T07:22:38.507Z,100.00
2023-01-17T07:25:07.046Z,100.00
2023-01-17T07:27:34.738Z,100.00
2023-01-17T07:30:02.532Z,100.00
2023-01-17T07:32:31.615Z,100.00
2023-01-17T07:34:59.289Z,100.00
2023-01-17T07:37:27.064Z,100.00
2023-01-17T07:39:54.904Z,100.00
2023-01-17T07:42:24.189Z,100.00
2023-01-17T07:44:52.095Z,100.00
2023-01-17T07:47:20.973Z,100.00
2023-01-17T07:49:50.052Z,100.00
2023-01-17T07:52:18.339Z,100.00
2023-01-17T07:54:46.135Z,100.00
2023-01-17T07:57:13.920Z,100.00
2023-01-17T07:59:41.654Z,100.00
2023-01-17T08:02:17.588Z,100.00
2023-01-17T08:04:45.381Z,100.00
2023-01-17T08:07:14.969Z,100.00
2023-01-17T08:09:43.195Z,100.00
2023-01-17T08:12:11.467Z,100.00
2023-01-17T08:14:39.204Z,100.00
2023-01-17T08:17:07.594Z,100.00
2023-01-17T08:19:35.256Z,100.00
2023-01-17T08:22:03.003Z,90.99
2023-01-17T08:24:32.082Z,86.83
2023-01-17T08:26:59.813Z,81.15
2023-01-17T08:29:27.586Z,73.25
2023-01-17T08:31:55.255Z,72.24
2023-01-17T08:34:23.146Z,68.80
2023-01-17T08:36:53.883Z,68.37
2023-01-17T08:39:22.378Z,64.71
2023-01-17T08:41:51.706Z,65.62
2023-01-17T08:44:20.057Z,68.46
2023-01-17T08:46:47.768Z,72.12
2023-01-17T08:49:15.552Z,72.59
2023-01-17T08:51:43.357Z,78.81
2023-01-17T08:54:13.279Z,80.68
2023-01-17T08:56:42.728Z,75.14
2023-01-17T08:59:13.055Z,69.68
2023-01-17T09:01:41.902Z,63.49
2023-01-17T09:04:10.277Z,61.03
2023-01-17T09:06:39.283Z,58.69
2023-01-17T09:09:07.579Z,56.94
2023-01-17T09:11:35.426Z,54.98
2023-01-17T09:14:03.143Z,54.97
2023-01-17T09:16:33.106Z,56.26
2023-01-17T09:19:01.224Z,59.53
2023-01-17T09:21:28.865Z,63.19
2023-01-17T09:23:56.748Z,64.84
2023-01-17T09:26:27.294Z,61.43
2023-01-17T09:28:55.420Z,57.21
2023-01-17T09:31:24.493Z,61.61
2023-01-17T09:33:55.267Z,63.74
2023-01-17T09:36:23.907Z,60.60
2023-01-17T09:38:57.046Z,60.35
2023-01-17T09:41:27.903Z,60.06
2023-01-17T09:44:01.326Z,57.52
2023-01-17T09:46:32.583Z,57.60
2023-01-17T09:49:08.386Z,57.19
2023-01-17T09:51:37.590Z,55.54
2023-01-17T09:54:06.023Z,54.92
2023-01-17T09:56:41.363Z,55.72
2023-01-17T09:59:33.229Z,54.53
2023-01-17T10:02:12.971Z,52.98
2023-01-17T10:04:59.600Z,49.22
2023-01-17T10:07:38.592Z,49.48
2023-01-17T10:10:21.076Z,48.58
2023-01-17T10:12:57.288Z,47.10
2023-01-17T10:16:00.167Z,49.16
2023-01-17T10:18:59.148Z,49.12
2023-01-17T10:21:39.140Z,48.08
2023-01-17T10:24:25.712Z,46.15
2023-01-17T10:26:57.187Z,43.49
2023-01-17T10:29:30.434Z,40.75
2023-01-17T10:32:00.999Z,42.25
2023-01-17T10:34:35.729Z,46.24
2023-01-17T10:37:17.013Z,49.82
2023-01-17T10:39:48.968Z,52.42
2023-01-17T10:42:22.896Z,53.79
2023-01-17T10:44:58.763Z,55.26
2023-01-17T10:47:31.934Z,54.19
2023-01-17T10:50:02.907Z,54.30
2023-01-17T10:52:39.853Z,55.19
2023-01-17T10:55:18.396Z,56.78
2023-01-17T10:57:48.734Z,57.93
2023-01-17T11:00:39.827Z,58.23
2023-01-17T11:03:08.051Z,59.17
2023-01-17T11:05:35.849Z,59.80
2023-01-17T11:08:07.200Z,58.87
2023-01-17T11:10:39.943Z,58.66
2023-01-17T11:13:23.429Z,57.38
2023-01-17T11:15:53.528Z,54.76
2023-01-17T11:18:22.716Z,51.93
2023-01-17T11:20:50.917Z,50.95
2023-01-17T11:23:23.520Z,50.25
2023-01-17T11:25:53.627Z,47.86
2023-01-17T11:28:26.043Z,49.08
2023-01-17T11:30:56.529Z,46.83
2023-01-17T11:33:45.034Z,45.58
2023-01-17T11:36:18.510Z,44.15
2023-01-17T11:38:57.717Z,44.57
2023-01-17T11:41:27.982Z,44.58
2023-01-17T11:43:57.446Z,45.21
2023-01-17T11:46:28.173Z,44.60
2023-01-17T11:48:59.516Z,43.79
2023-01-17T11:51:30.904Z,44.38
2023-01-17T11:54:13.345Z,42.06
2023-01-17T11:56:44.924Z,42.31
2023-01-17T11:59:29.911Z,42.36
2023-01-17T12:02:31.646Z,39.99
2023-01-17T12:05:10.068Z,39.54
2023-01-17T12:07:48.702Z,38.46
2023-01-17T12:10:24.645Z,37.26
2023-01-17T12:13:20.490Z,36.86
2023-01-17T12:16:01.732Z,36.27
2023-01-17T12:18:49.800Z,36.04
2023-01-17T12:21:21.112Z,37.05
2023-01-17T12:24:08.356Z,37.97
2023-01-17T12:26:41.408Z,37.23
2023-01-17T12:29:33.878Z,37.97
2023-01-17T12:32:23.501Z,36.29
2023-01-17T12:34:56.061Z,36.42
2023-01-17T12:37:30.496Z,35.71
2023-01-17T12:40:03.346Z,35.20
2023-01-17T12:42:40.661Z,34.22
2023-01-17T12:45:14.426Z,34.17
2023-01-17T12:47:46.530Z,33.80
2023-01-17T12:50:23.245Z,33.45
2023-01-17T12:53:00.419Z,33.66
2023-01-17T12:55:37.427Z,34.05
2023-01-17T12:58:13.727Z,35.07
2023-01-17T13:00:52.226Z,36.19
2023-01-17T13:03:30.793Z,35.38
2023-01-17T13:05:59.370Z,34.02
2023-01-17T13:08:34.881Z,35.33
2023-01-17T13:11:08.120Z,34.80
2023-01-17T13:13:39.206Z,34.61
2023-01-17T13:16:13.608Z,34.92
2023-01-17T13:18:46.204Z,36.27
2023-01-17T13:21:33.059Z,37.90
2023-01-17T13:24:22.645Z,37.81
2023-01-17T13:27:03.368Z,37.74
2023-01-17T13:29:41.323Z,39.99
2023-01-17T13:32:22.756Z,39.61
2023-01-17T13:35:07.691Z,39.54
2023-01-17T13:37:53.425Z,40.74
2023-01-17T13:40:37.435Z,41.46
2023-01-17T13:43:12.393Z,42.39
2023-01-17T13:45:41.705Z,42.97
2023-01-17T13:48:32.604Z,44.40
2023-01-17T13:51:02.212Z,43.81
2023-01-17T13:53:59.744Z,44.53
2023-01-17T13:56:35.552Z,43.88
2023-01-17T13:59:22.147Z,45.78
2023-01-17T14:01:55.075Z,46.06
2023-01-17T14:04:24.612Z,45.33
2023-01-17T14:07:03.772Z,46.70
2023-01-17T14:09:42.170Z,47.16
2023-01-17T14:12:28.024Z,46.91
2023-01-17T14:14:57.627Z,47.54
2023-01-17T14:17:55.658Z,48.18
2023-01-17T14:20:50.274Z,48.25
2023-01-17T14:23:26.100Z,49.20
2023-01-17T14:25:54.612Z,49.64
2023-01-17T14:28:25.594Z,49.07
2023-01-17T14:30:56.099Z,49.24
2023-01-17T14:33:29.770Z,48.99
2023-01-17T14:35:59.656Z,49.47
2023-01-17T14:38:29.334Z,50.09
2023-01-17T14:40:59.832Z,50.67
2023-01-17T14:43:29.480Z,50.86
2023-01-17T14:45:59.688Z,50.90
2023-01-17T14:48:29.832Z,51.09
2023-01-17T14:51:00.205Z,51.51
2023-01-17T14:53:29.262Z,51.61
2023-01-17T14:56:00.155Z,51.72
2023-01-17T14:58:30.401Z,51.33
2023-01-17T15:01:01.272Z,51.38
2023-01-17T15:03:33.331Z,51.01
2023-01-17T15:06:11.932Z,51.49
2023-01-17T15:08:40.199Z,52.21
2023-01-17T15:11:11.014Z,51.54
2023-01-17T15:13:44.614Z,51.89
2023-01-17T15:16:22.933Z,51.70
2023-01-17T15:18:53.438Z,52.00
2023-01-17T15:21:23.392Z,52.39
2023-01-17T15:23:54.433Z,52.43
2023-01-17T15:26:25.379Z,52.49
2023-01-17T15:28:54.187Z,52.67
2023-01-17T15:31:25.010Z,52.76
2023-01-17T15:33:58.484Z,53.26
2023-01-17T15:36:32.426Z,53.46
2023-01-17T15:39:02.612Z,53.55
2023-01-17T15:41:34.885Z,53.75
2023-01-17T15:44:02.900Z,54.26
2023-01-17T15:46:33.904Z,54.46
2023-01-17T15:49:17.757Z,54.58
2023-01-17T15:51:51.849Z,54.77
2023-01-17T15:54:44.569Z,54.75
2023-01-17T15:57:23.457Z,55.51
2023-01-17T15:59:55.158Z,55.77
2023-01-17T16:02:31.976Z,55.43
2023-01-17T16:05:02.448Z,55.96
2023-01-17T16:07:34.788Z,56.04
2023-01-17T16:10:15.655Z,56.47
2023-01-17T16:12:43.335Z,56.31
2023-01-17T16:15:13.418Z,56.42
2023-01-17T16:17:45.477Z,56.46
2023-01-17T16:20:25.295Z,56.72
2023-01-17T16:22:53.455Z,56.99
2023-01-17T16:25:22.682Z,57.31
2023-01-17T16:27:51.996Z,56.93
2023-01-17T16:30:22.468Z,57.37
2023-01-17T16:32:50.897Z,58.43
2023-01-17T16:35:21.520Z,58.10
2023-01-17T16:37:50.984Z,58.18
2023-01-17T16:40:19.780Z,58.75
2023-01-17T16:42:47.637Z,58.81
2023-01-17T16:45:16.266Z,59.54
2023-01-17T16:47:45.620Z,60.62
2023-01-17T16:50:15.841Z,60.60
2023-01-17T16:52:45.052Z,61.82
2023-01-17T16:55:14.926Z,61.49
2023-01-17T16:57:42.793Z,61.80
2023-01-17T17:00:12.812Z,60.90
2023-01-17T17:02:40.755Z,61.19
2023-01-17T17:05:09.649Z,60.58
2023-01-17T17:07:42.671Z,60.42
2023-01-17T17:10:14.016Z,60.81
2023-01-17T17:12:41.950Z,60.98
2023-01-17T17:15:10.928Z,60.78
2023-01-17T17:17:39.556Z,61.48
2023-01-17T17:20:09.581Z,61.18
2023-01-17T17:22:37.348Z,62.14
2023-01-17T17:25:05.542Z,63.45
2023-01-17T17:27:34.486Z,62.69
2023-01-17T17:30:02.151Z,63.00
2023-01-17T17:32:30.869Z,62.24
2023-01-17T17:34:58.576Z,62.39
2023-01-17T17:37:28.908Z,62.48
2023-01-17T17:39:56.638Z,62.60
2023-01-17T17:42:24.651Z,63.15
2023-01-17T17:44:53.674Z,65.03
2023-01-17T17:47:21.368Z,64.56
2023-01-17T17:49:49.026Z,65.64
2023-01-17T17:52:16.711Z,66.48
2023-01-17T17:54:44.354Z,67.02
2023-01-17T17:57:12.065Z,67.75
2023-01-17T17:59:39.761Z,68.56
2023-01-17T18:02:11.009Z,70.10
2023-01-17T18:04:39.127Z,70.54
2023-01-17T18:07:06.783Z,72.18
2023-01-17T18:09:34.646Z,73.75
2023-01-17T18:12:02.815Z,76.82
2023-01-17T18:14:30.644Z,78.02
2023-01-17T18:16:58.257Z,76.09
2023-01-17T18:19:27.469Z,76.49
2023-01-17T18:21:55.741Z,79.88
2023-01-17T18:24:25.110Z,81.33
2023-01-17T18:26:54.178Z,81.30
2023-01-17T18:29:22.874Z,83.18
2023-01-17T18:31:52.152Z,85.14
2023-01-17T18:34:23.675Z,84.29
2023-01-17T18:36:53.298Z,83.79
2023-01-17T18:39:22.548Z,82.91
2023-01-17T18:41:50.263Z,84.30
2023-01-17T18:44:20.851Z,84.98
2023-01-17T18:46:50.177Z,84.24
2023-01-17T18:49:19.248Z,85.60
2023-01-17T18:51:51.272Z,86.84
2023-01-17T18:54:21.044Z,84.06
2023-01-17T18:56:49.350Z,81.14
2023-01-17T18:59:18.337Z,78.52
2023-01-17T19:01:46.965Z,78.62
2023-01-17T19:04:17.131Z,79.04
2023-01-17T19:06:46.425Z,80.39
2023-01-17T19:09:15.704Z,81.03
2023-01-17T19:11:45.496Z,79.61
2023-01-17T19:14:14.415Z,79.43
2023-01-17T19:16:43.463Z,79.77
2023-01-17T19:19:13.873Z,79.97
2023-01-17T19:21:41.677Z,80.47
2023-01-17T19:24:11.795Z,80.90
2023-01-17T19:26:39.634Z,81.84
2023-01-17T19:29:08.690Z,82.11
2023-01-17T19:31:39.659Z,83.16
2023-01-17T19:34:07.432Z,84.29
2023-01-17T19:36:36.714Z,83.36
2023-01-17T19:39:07.226Z,82.07
2023-01-17T19:41:37.034Z,81.70
2023-01-17T19:44:07.194Z,82.10
2023-01-17T19:46:37.535Z,82.38
2023-01-17T19:49:07.507Z,82.61
2023-01-17T19:51:35.867Z,82.34
2023-01-17T19:54:06.340Z,83.41
2023-01-17T19:56:34.078Z,82.75
2023-01-17T19:59:02.311Z,82.26
2023-01-17T20:01:32.330Z,82.45
2023-01-17T20:04:04.768Z,81.66
2023-01-17T20:06:34.101Z,83.25
2023-01-17T20:09:02.838Z,82.22
2023-01-17T20:11:30.634Z,82.15
2023-01-17T20:14:00.451Z,82.77
2023-01-17T20:16:30.535Z,82.51
2023-01-17T20:18:58.752Z,82.14
2023-01-17T20:21:31.650Z,82.66
2023-01-17T20:24:03.080Z,82.41
2023-01-17T20:26:36.134Z,83.03
2023-01-17T20:29:10.471Z,81.73
2023-01-17T20:31:40.857Z,82.50
2023-01-17T20:34:10.747Z,82.79
2023-01-17T20:36:42.023Z,83.58
2023-01-17T20:39:11.739Z,84.26
2023-01-17T20:41:41.292Z,83.41
2023-01-17T20:44:12.309Z,83.88
2023-01-17T20:46:41.373Z,84.08
2023-01-17T20:49:14.737Z,84.33
2023-01-17T20:51:45.666Z,83.49
2023-01-17T20:54:15.630Z,83.06
2023-01-17T20:56:44.073Z,83.92
2023-01-17T20:59:14.452Z,83.89
2023-01-17T21:01:43.764Z,82.73
2023-01-17T21:04:12.924Z,83.64
2023-01-17T21:06:41.524Z,82.88
2023-01-17T21:09:13.908Z,83.63
2023-01-17T21:11:41.871Z,82.64
2023-01-17T21:14:09.968Z,84.37
2023-01-17T21:16:38.146Z,84.90
2023-01-17T21:19:06.805Z,85.35
2023-01-17T21:21:35.918Z,85.26
2023-01-17T21:24:04.948Z,86.21
2023-01-17T21:26:34.357Z,85.98
2023-01-17T21:29:04.629Z,86.25
2023-01-17T21:31:35.734Z,87.11
2023-01-17T21:34:05.517Z,85.84
2023-01-17T21:36:35.602Z,87.14
2023-01-17T21:39:06.427Z,86.76
2023-01-17T21:41:38.101Z,86.67
2023-01-17T21:44:08.703Z,86.80
2023-01-17T21:46:39.264Z,86.23
2023-01-17T21:49:10.552Z,85.50
2023-01-17T21:51:56.245Z,85.54
2023-01-17T21:54:46.079Z,85.69
2023-01-17T21:57:39.196Z,85.75
2023-01-17T22:00:09.901Z,87.87
2023-01-17T22:02:37.829Z,89.87
2023-01-17T22:05:07.756Z,92.29
2023-01-17T22:07:36.212Z,93.54
2023-01-17T22:10:04.051Z,93.48
2023-01-17T22:12:33.357Z,93.58
2023-01-17T22:15:01.119Z,93.35
2023-01-17T22:17:30.555Z,94.07
2023-01-17T22:19:58.442Z,95.26
2023-01-17T22:22:26.250Z,95.91
2023-01-17T22:24:54.068Z,95.78
2023-01-17T22:27:22.138Z,96.48
2023-01-17T22:29:51.224Z,97.40
2023-01-17T22:32:18.994Z,99.05
2023-01-17T22:34:46.694Z,100.00
2023-01-17T22:37:14.548Z,99.57
2023-01-17T22:39:42.300Z,99.19
2023-01-17T22:42:10.067Z,98.74
2023-01-17T22:44:37.883Z,99.03
2023-01-17T22:47:06.958Z,99.72
2023-01-17T22:49:34.658Z,100.00
2023-01-17T22:52:02.407Z,100.00
2023-01-17T22:54:30.210Z,100.00
2023-01-17T22:56:58.796Z,100.00
2023-01-17T22:59:26.526Z,100.00
2023-01-17T23:01:54.925Z,100.00
2023-01-17T23:04:24.032Z,100.00
2023-01-17T23:06:51.944Z,100.00
2023-01-17T23:09:19.748Z,100.00
2023-01-17T23:11:50.746Z,100.00
2023-01-17T23:14:20.637Z,100.00
2023-01-17T23:17:08.389Z,100.00
2023-01-17T23:19:39.585Z,100.00
2023-01-17T23:22:22.284Z,100.00
2023-01-17T23:24:52.619Z,100.00
2023-01-17T23:27:40.941Z,100.00
2023-01-17T23:30:11.752Z,100.00
2023-01-17T23:32:40.034Z,100.00
2023-01-17T23:35:09.617Z,100.00
2023-01-17T23:37:54.824Z,100.00
2023-01-17T23:40:22.788Z,100.00
2023-01-17T23:43:08.052Z,100.00
2023-01-17T23:45:36.835Z,100.00
2023-01-17T23:48:05.701Z,100.00
2023-01-17T23:50:34.861Z,100.00
2023-01-17T23:53:06.850Z,100.00
2023-01-17T23:55:37.022Z,100.00
2023-01-17T23:58:05.130Z,100.00
